createdAt,value
2023-04-04T00:00:40.009Z,7.21
2023-04-04T00:03:07.159Z,7.20
2023-04-04T00:05:35.805Z,7.15
2023-04-04T00:08:03.849Z,7.11
2023-04-04T00:10:30.598Z,7.10
2023-04-04T00:12:57.319Z,7.08
2023-04-04T00:15:23.996Z,7.03
2023-04-04T00:17:50.799Z,7.04
2023-04-04T00:20:17.676Z,7.04
2023-04-04T00:22:45.028Z,7.04
2023-04-04T00:25:12.310Z,7.03
2023-04-04T00:27:39.026Z,7.05
2023-04-04T00:30:06.798Z,7.06
2023-04-04T00:32:33.589Z,7.09
2023-04-04T00:35:00.558Z,7.09
2023-04-04T00:37:28.045Z,7.12
2023-04-04T00:39:54.778Z,7.15
2023-04-04T00:42:21.452Z,7.15
2023-04-04T00:44:48.626Z,7.17
2023-04-04T00:47:15.563Z,7.19
2023-04-04T00:49:42.238Z,7.20
2023-04-04T00:52:09.034Z,7.19
2023-04-04T00:54:36.009Z,7.20
2023-04-04T00:57:04.442Z,7.21
2023-04-04T00:59:32.333Z,7.21
2023-04-04T01:02:00.759Z,7.23
2023-04-04T01:04:29.456Z,7.25
2023-04-04T01:06:56.925Z,7.26
2023-04-04T01:09:23.753Z,7.27
2023-04-04T01:11:50.863Z,7.27
2023-04-04T01:14:17.527Z,7.29
2023-04-04T01:16:45.571Z,7.29
2023-04-04T01:19:22.375Z,7.28
2023-04-04T01:21:49.571Z,7.27
2023-04-04T01:24:17.642Z,7.25
2023-04-04T01:26:44.608Z,7.26
2023-04-04T01:29:11.483Z,7.25
2023-04-04T01:31:41.896Z,7.23
2023-04-04T01:34:08.629Z,7.21
2023-04-04T01:36:53.659Z,7.20
2023-04-04T01:39:28.326Z,7.19
2023-04-04T01:41:58.444Z,7.16
2023-04-04T01:44:26.522Z,7.16
2023-04-04T01:46:56.355Z,7.16
2023-04-04T01:49:23.559Z,7.15
2023-04-04T01:51:52.725Z,7.14
2023-04-04T01:54:19.364Z,7.15
2023-04-04T01:56:46.549Z,7.13
2023-04-04T01:59:13.488Z,7.07
2023-04-04T02:01:40.196Z,7.08
2023-04-04T02:04:07.483Z,7.07
2023-04-04T02:06:34.144Z,7.09
2023-04-04T02:09:01.106Z,7.08
2023-04-04T02:11:27.819Z,7.08
2023-04-04T02:13:54.439Z,7.09
2023-04-04T02:16:21.517Z,7.08
2023-04-04T02:18:48.295Z,7.08
2023-04-04T02:21:15.005Z,7.08
2023-04-04T02:23:41.695Z,7.06
2023-04-04T02:26:08.313Z,7.03
2023-04-04T02:28:35.102Z,7.04
2023-04-04T02:31:02.997Z,7.04
2023-04-04T02:33:30.098Z,7.03
2023-04-04T02:35:58.874Z,7.04
2023-04-04T02:38:26.310Z,7.03
2023-04-04T02:40:53.363Z,7.03
2023-04-04T02:43:20.083Z,7.04
2023-04-04T02:45:49.534Z,7.06
2023-04-04T02:48:16.450Z,7.06
2023-04-04T02:50:43.763Z,7.06
2023-04-04T02:53:10.560Z,7.05
2023-04-04T02:55:37.187Z,7.03
2023-04-04T02:58:03.952Z,7.03
2023-04-04T03:00:37.446Z,7.04
2023-04-04T03:03:05.533Z,7.03
2023-04-04T03:05:32.732Z,7.03
2023-04-04T03:07:59.908Z,7.00
2023-04-04T03:10:30.011Z,6.95
2023-04-04T03:12:57.503Z,6.92
2023-04-04T03:15:24.310Z,6.95
2023-04-04T03:20:18.919Z,6.93
2023-04-04T03:22:45.612Z,6.91
2023-04-04T03:25:12.416Z,6.90
2023-04-04T03:27:39.936Z,6.91
2023-04-04T03:30:08.445Z,6.88
2023-04-04T03:32:36.499Z,6.91
2023-04-04T03:35:03.574Z,6.92
2023-04-04T03:37:30.590Z,6.93
2023-04-04T03:39:58.302Z,6.95
2023-04-04T03:42:26.108Z,6.96
2023-04-04T03:44:56.364Z,6.94
2023-04-04T03:47:23.048Z,6.96
2023-04-04T03:49:51.598Z,6.98
2023-04-04T03:52:18.815Z,6.98
2023-04-04T03:54:46.177Z,6.99
2023-04-04T03:57:12.878Z,7.00
2023-04-04T03:59:39.760Z,7.01
2023-04-04T04:02:06.926Z,7.02
2023-04-04T04:04:33.714Z,7.03
2023-04-04T04:07:00.958Z,7.03
2023-04-04T04:09:27.615Z,7.03
2023-04-04T04:11:54.329Z,7.05
2023-04-04T04:14:21.003Z,7.06
2023-04-04T04:16:47.874Z,7.05
2023-04-04T04:19:14.527Z,7.05
2023-04-04T04:21:42.703Z,7.06
2023-04-04T04:24:09.694Z,7.06
2023-04-04T04:26:36.462Z,7.09
2023-04-04T04:29:03.341Z,7.10
2023-04-04T04:31:30.118Z,7.09
2023-04-04T04:33:57.013Z,7.09
2023-04-04T04:36:23.866Z,7.11
2023-04-04T04:38:50.755Z,7.13
2023-04-04T04:41:17.430Z,7.18
2023-04-04T04:43:44.065Z,7.18
2023-04-04T04:46:10.830Z,7.17
2023-04-04T04:48:37.582Z,7.19
2023-04-04T04:51:04.399Z,7.22
2023-04-04T04:53:31.476Z,7.23
2023-04-04T04:55:58.168Z,7.24
2023-04-04T04:58:26.916Z,7.23
2023-04-04T05:00:57.908Z,7.23
2023-04-04T05:03:25.118Z,7.24
2023-04-04T05:05:52.132Z,7.23
2023-04-04T05:08:19.052Z,7.23
2023-04-04T05:10:45.776Z,7.23
2023-04-04T05:13:12.612Z,7.24
2023-04-04T05:15:39.301Z,7.24
2023-04-04T05:18:06.054Z,7.24
2023-04-04T05:20:33.508Z,7.24
2023-04-04T05:23:00.163Z,7.24
2023-04-04T05:25:27.738Z,7.24
2023-04-04T05:27:58.980Z,7.22
2023-04-04T05:30:25.892Z,7.22
2023-04-04T05:32:52.755Z,7.23
2023-04-04T05:35:19.586Z,7.25
2023-04-04T05:37:46.554Z,7.25
2023-04-04T05:40:13.354Z,7.24
2023-04-04T05:42:40.064Z,7.22
2023-04-04T05:45:07.380Z,7.24
2023-04-04T05:47:34.070Z,7.24
2023-04-04T05:50:01.161Z,7.24
2023-04-04T05:52:28.050Z,7.27
2023-04-04T05:54:54.903Z,7.28
2023-04-04T05:57:22.955Z,7.28
2023-04-04T05:59:50.174Z,7.30
2023-04-04T06:02:17.535Z,7.30
2023-04-04T06:04:45.655Z,7.31
2023-04-04T06:07:12.278Z,7.32
2023-04-04T06:09:38.902Z,7.31
2023-04-04T06:12:05.675Z,7.32
2023-04-04T06:14:32.498Z,7.31
2023-04-04T06:16:59.340Z,7.30
2023-04-04T06:19:26.940Z,7.32
2023-04-04T06:21:53.600Z,7.35
2023-04-04T06:24:20.440Z,7.34
2023-04-04T06:26:51.420Z,7.34
2023-04-04T06:29:18.591Z,7.33
2023-04-04T06:31:45.487Z,7.33
2023-04-04T06:34:12.292Z,7.33
2023-04-04T06:36:38.954Z,7.34
2023-04-04T06:39:05.723Z,7.37
2023-04-04T06:41:32.457Z,7.39
2023-04-04T06:43:59.169Z,7.41
2023-04-04T06:46:27.153Z,7.42
2023-04-04T06:48:54.933Z,7.44
2023-04-04T06:51:23.309Z,7.46
2023-04-04T06:53:50.222Z,7.46
2023-04-04T06:56:16.976Z,7.48
2023-04-04T06:58:43.735Z,7.48
2023-04-04T07:01:10.443Z,7.50
2023-04-04T07:03:37.522Z,7.53
2023-04-04T07:06:06.642Z,7.54
2023-04-04T07:08:35.955Z,7.56
2023-04-04T07:11:03.306Z,7.59
2023-04-04T07:13:29.975Z,7.60
2023-04-04T07:15:57.177Z,7.62
2023-04-04T07:18:23.913Z,7.64
2023-04-04T07:20:50.526Z,7.67
2023-04-04T07:23:17.222Z,7.73
2023-04-04T07:25:45.046Z,7.78
2023-04-04T07:28:13.529Z,7.83
2023-04-04T07:30:40.798Z,7.90
2023-04-04T07:33:08.111Z,7.96
2023-04-04T07:35:35.503Z,8.03
2023-04-04T07:38:03.098Z,8.09
2023-04-04T07:40:30.189Z,8.14
2023-04-04T07:42:57.558Z,8.20
2023-04-04T07:45:24.280Z,8.25
2023-04-04T07:47:51.152Z,8.32
2023-04-04T07:50:18.115Z,8.39
2023-04-04T07:52:51.388Z,8.42
2023-04-04T07:55:19.597Z,8.46
2023-04-04T07:57:47.323Z,8.50
2023-04-04T08:00:14.721Z,8.52
2023-04-04T08:02:44.554Z,8.53
2023-04-04T08:05:11.278Z,8.55
2023-04-04T08:07:38.102Z,8.58
2023-04-04T08:10:06.243Z,8.58
2023-04-04T08:12:33.257Z,8.58
2023-04-04T08:14:59.891Z,8.57
2023-04-04T08:17:26.647Z,8.59
2023-04-04T08:19:53.317Z,8.59
2023-04-04T08:22:20.172Z,8.63
2023-04-04T08:24:46.819Z,8.65
2023-04-04T08:27:15.063Z,8.66
2023-04-04T08:29:42.013Z,8.70
2023-04-04T08:32:09.576Z,8.75
2023-04-04T08:34:36.487Z,8.76
2023-04-04T08:37:03.195Z,8.78
2023-04-04T08:39:29.955Z,8.84
2023-04-04T08:42:07.747Z,8.92
2023-04-04T08:44:35.656Z,9.07
2023-04-04T08:47:08.487Z,9.26
2023-04-04T08:49:38.547Z,9.43
2023-04-04T08:52:07.579Z,9.53
2023-04-04T08:54:35.726Z,9.61
2023-04-04T08:57:02.577Z,9.66
2023-04-04T08:59:29.473Z,9.71
2023-04-04T09:02:14.555Z,9.75
2023-04-04T09:04:48.707Z,9.75
2023-04-04T09:07:22.888Z,9.73
2023-04-04T09:09:51.030Z,9.71
2023-04-04T09:12:18.977Z,9.70
2023-04-04T09:14:47.716Z,9.71
2023-04-04T09:17:14.393Z,9.75
2023-04-04T09:19:41.045Z,9.79
2023-04-04T09:22:09.306Z,9.81
2023-04-04T09:24:40.771Z,9.84
2023-04-04T09:27:12.158Z,9.85
2023-04-04T09:29:39.753Z,9.89
2023-04-04T09:32:10.702Z,9.99
2023-04-04T09:34:37.950Z,10.08
2023-04-04T09:37:07.050Z,10.17
2023-04-04T09:39:34.832Z,10.26
2023-04-04T09:42:02.160Z,10.33
2023-04-04T09:44:33.341Z,10.40
2023-04-04T09:50:02.174Z,10.57
2023-04-04T09:52:33.286Z,10.63
2023-04-04T09:55:02.213Z,10.72
2023-04-04T09:57:34.861Z,10.91
2023-04-04T10:00:09.549Z,11.06
2023-04-04T10:02:47.026Z,11.12
2023-04-04T10:05:14.643Z,11.08
2023-04-04T10:07:43.693Z,11.07
2023-04-04T10:10:11.142Z,11.05
2023-04-04T10:12:38.929Z,11.04
2023-04-04T10:15:06.185Z,11.02
2023-04-04T10:17:41.054Z,11.00
2023-04-04T10:20:09.387Z,10.98
2023-04-04T10:22:37.907Z,10.98
2023-04-04T10:25:05.977Z,10.95
2023-04-04T10:27:34.360Z,10.97
2023-04-04T10:30:01.558Z,10.97
2023-04-04T10:32:35.882Z,11.02
2023-04-04T10:35:10.928Z,11.10
2023-04-04T10:37:51.568Z,11.23
2023-04-04T10:40:21.411Z,11.32
2023-04-04T10:42:50.900Z,11.39
2023-04-04T10:45:21.713Z,11.50
2023-04-04T10:47:49.397Z,11.66
2023-04-04T10:50:16.380Z,11.84
2023-04-04T10:52:44.610Z,12.04
2023-04-04T10:55:15.917Z,12.17
2023-04-04T10:57:55.201Z,12.26
2023-04-04T11:00:26.303Z,12.24
2023-04-04T11:02:53.156Z,12.19
2023-04-04T11:05:32.945Z,12.16
2023-04-04T11:08:08.333Z,12.10
2023-04-04T11:10:38.018Z,12.08
2023-04-04T11:13:16.339Z,12.06
2023-04-04T11:15:56.900Z,12.01
2023-04-04T11:18:34.321Z,11.98
2023-04-04T11:21:08.132Z,11.95
2023-04-04T11:24:13.363Z,11.95
2023-04-04T11:26:42.827Z,11.97
2023-04-04T11:29:14.374Z,12.00
2023-04-04T11:31:45.563Z,12.04
2023-04-04T11:34:13.825Z,12.07
2023-04-04T11:36:41.701Z,12.10
2023-04-04T11:39:31.326Z,12.12
2023-04-04T11:42:11.454Z,12.15
2023-04-04T11:45:00.034Z,12.12
2023-04-04T11:47:26.787Z,12.08
2023-04-04T11:49:54.151Z,12.08
2023-04-04T11:52:21.321Z,12.11
2023-04-04T11:54:49.126Z,12.12
2023-04-04T11:57:18.910Z,12.18
2023-04-04T11:59:48.809Z,12.32
2023-04-04T12:02:27.486Z,12.49
2023-04-04T12:04:55.524Z,12.59
2023-04-04T12:07:24.845Z,12.67
2023-04-04T12:09:52.246Z,12.69
2023-04-04T12:12:20.536Z,12.68
2023-04-04T12:14:47.776Z,12.79
2023-04-04T12:17:15.999Z,12.92
2023-04-04T12:19:43.663Z,12.99
2023-04-04T12:22:10.866Z,13.02
2023-04-04T12:24:37.933Z,12.95
2023-04-04T12:27:05.455Z,12.95
2023-04-04T12:29:42.686Z,13.02
2023-04-04T12:32:10.805Z,13.12
2023-04-04T12:34:46.977Z,13.14
2023-04-04T12:37:19.175Z,13.14
2023-04-04T12:39:51.113Z,13.15
2023-04-04T12:42:22.765Z,13.09
2023-04-04T12:44:52.196Z,13.05
2023-04-04T12:47:21.203Z,13.08
2023-04-04T12:49:48.841Z,13.14
2023-04-04T12:52:23.287Z,13.22
2023-04-04T12:57:27.631Z,13.38
2023-04-04T12:59:55.831Z,13.43
2023-04-04T13:02:23.733Z,13.50
2023-04-04T13:04:57.905Z,13.65
2023-04-04T13:07:25.909Z,13.83
2023-04-04T13:10:02.789Z,14.07
2023-04-04T13:12:59.645Z,14.24
2023-04-04T13:15:52.100Z,14.41
2023-04-04T13:18:24.652Z,14.57
2023-04-04T13:20:52.864Z,14.66
2023-04-04T13:23:20.423Z,14.71
2023-04-04T13:25:47.132Z,14.78
2023-04-04T13:28:14.394Z,14.81
2023-04-04T13:30:46.800Z,14.86
2023-04-04T13:33:13.829Z,14.93
2023-04-04T13:35:43.808Z,15.03
2023-04-04T13:38:11.771Z,15.12
2023-04-04T13:40:38.694Z,15.25
2023-04-04T13:43:05.495Z,15.40
2023-04-04T13:45:35.707Z,15.43
2023-04-04T13:48:02.965Z,15.48
2023-04-04T13:50:32.982Z,15.52
2023-04-04T13:52:59.736Z,15.51
2023-04-04T13:55:27.681Z,15.55
2023-04-04T13:57:54.562Z,15.57
2023-04-04T14:00:21.633Z,15.59
2023-04-04T14:02:53.480Z,15.49
2023-04-04T14:05:22.434Z,15.41
2023-04-04T14:07:50.788Z,15.45
2023-04-04T14:10:17.489Z,15.52
2023-04-04T14:12:44.601Z,15.55
2023-04-04T14:15:12.357Z,15.60
2023-04-04T14:17:39.039Z,15.63
2023-04-04T14:20:06.890Z,15.62
2023-04-04T14:22:34.148Z,15.62
2023-04-04T14:25:01.284Z,15.61
2023-04-04T14:27:28.022Z,15.53
2023-04-04T14:29:54.658Z,15.56
2023-04-04T14:32:21.496Z,15.56
2023-04-04T14:34:49.540Z,15.60
2023-04-04T14:37:17.696Z,15.66
2023-04-04T14:39:44.773Z,15.66
2023-04-04T14:42:12.556Z,15.72
2023-04-04T14:44:39.328Z,15.85
2023-04-04T14:47:06.018Z,15.80
2023-04-04T14:49:33.119Z,15.79
2023-04-04T14:51:59.810Z,15.75
2023-04-04T14:54:26.568Z,15.69
2023-04-04T14:56:53.220Z,15.72
2023-04-04T14:59:20.028Z,15.86
2023-04-04T15:01:47.025Z,15.95
2023-04-04T15:04:13.736Z,15.98
2023-04-04T15:06:40.506Z,16.02
2023-04-04T15:09:08.145Z,16.10
2023-04-04T15:11:35.985Z,16.18
2023-04-04T15:14:03.094Z,16.18
2023-04-04T15:16:33.154Z,16.17
2023-04-04T15:19:00.772Z,16.11
2023-04-04T15:21:28.621Z,15.99
2023-04-04T15:23:55.558Z,15.86
2023-04-04T15:26:22.946Z,15.73
2023-04-04T15:28:49.861Z,15.67
2023-04-04T15:31:17.069Z,15.68
2023-04-04T15:33:44.054Z,15.69
2023-04-04T15:36:11.145Z,15.62
2023-04-04T15:38:38.141Z,15.65
2023-04-04T15:41:08.150Z,15.58
2023-04-04T15:43:36.554Z,15.46
2023-04-04T15:46:03.297Z,15.52
2023-04-04T15:48:30.058Z,15.51
2023-04-04T15:51:02.388Z,15.46
2023-04-04T15:53:33.441Z,15.49
2023-04-04T15:56:02.048Z,15.55
2023-04-04T15:58:28.747Z,15.51
2023-04-04T16:00:56.121Z,15.55
2023-04-04T16:03:24.616Z,15.47
2023-04-04T16:05:51.311Z,15.46
2023-04-04T16:08:18.385Z,15.44
2023-04-04T16:10:45.088Z,15.45
2023-04-04T16:13:13.560Z,15.42
2023-04-04T16:15:40.434Z,15.44
2023-04-04T16:18:07.377Z,15.38
2023-04-04T16:20:34.264Z,15.25
2023-04-04T16:23:01.131Z,15.10
2023-04-04T16:25:27.928Z,15.00
2023-04-04T16:27:54.582Z,14.90
2023-04-04T16:30:21.345Z,14.78
2023-04-04T16:32:48.161Z,14.70
2023-04-04T16:35:15.635Z,14.56
2023-04-04T16:37:42.314Z,14.35
2023-04-04T16:40:09.524Z,14.16
2023-04-04T16:42:36.226Z,14.06
2023-04-04T16:45:02.976Z,13.92
2023-04-04T16:47:29.926Z,13.87
2023-04-04T16:49:57.702Z,13.74
2023-04-04T16:52:24.385Z,13.63
2023-04-04T16:54:51.105Z,13.49
2023-04-04T16:57:17.951Z,13.33
2023-04-04T16:59:45.700Z,13.28
2023-04-04T17:02:12.644Z,13.31
2023-04-04T17:04:41.726Z,13.30
2023-04-04T17:07:09.037Z,13.27
2023-04-04T17:09:35.955Z,13.29
2023-04-04T17:12:03.377Z,13.28
2023-04-04T17:14:30.448Z,13.24
2023-04-04T17:17:02.754Z,13.13
2023-04-04T17:19:31.695Z,13.06
2023-04-04T17:21:58.854Z,13.02
2023-04-04T17:24:27.458Z,12.96
2023-04-04T17:26:58.424Z,12.83
2023-04-04T17:29:27.062Z,12.76
2023-04-04T17:31:55.223Z,12.71
2023-04-04T17:34:22.554Z,12.70
2023-04-04T17:36:51.323Z,12.60
2023-04-04T17:39:17.998Z,12.57
2023-04-04T17:41:48.387Z,12.52
2023-04-04T17:44:16.049Z,12.48
2023-04-04T17:46:43.070Z,12.45
2023-04-04T17:49:09.888Z,12.40
2023-04-04T17:51:37.587Z,12.36
2023-04-04T17:54:05.189Z,12.35
2023-04-04T17:56:32.099Z,12.28
2023-04-04T17:58:58.998Z,12.22
2023-04-04T18:01:27.962Z,12.19
2023-04-04T18:03:55.070Z,12.16
2023-04-04T18:06:22.200Z,12.09
2023-04-04T18:08:48.863Z,12.04
2023-04-04T18:11:16.411Z,11.97
2023-04-04T18:13:44.169Z,11.91
2023-04-04T18:16:10.881Z,11.83
2023-04-04T18:18:39.285Z,11.80
2023-04-04T18:21:06.870Z,11.74
2023-04-04T18:23:33.587Z,11.68
2023-04-04T18:26:01.314Z,11.63
2023-04-04T18:28:27.948Z,11.60
2023-04-04T18:30:54.884Z,11.58
2023-04-04T18:33:22.223Z,11.52
2023-04-04T18:35:48.975Z,11.49
2023-04-04T18:38:15.636Z,11.42
2023-04-04T18:40:45.226Z,11.37
2023-04-04T18:43:12.248Z,11.34
2023-04-04T18:45:41.270Z,11.31
2023-04-04T18:48:08.843Z,11.31
2023-04-04T18:50:35.843Z,11.33
2023-04-04T18:53:02.562Z,11.31
2023-04-04T18:55:29.693Z,11.27
2023-04-04T18:57:57.574Z,11.29
2023-04-04T19:00:24.956Z,11.27
2023-04-04T19:02:51.791Z,11.25
2023-04-04T19:05:24.324Z,11.22
2023-04-04T19:07:54.585Z,11.23
2023-04-04T19:10:22.106Z,11.25
2023-04-04T19:12:49.268Z,11.22
2023-04-04T19:15:16.681Z,11.21
2023-04-04T19:17:43.382Z,11.23
2023-04-04T19:20:11.121Z,11.22
2023-04-04T19:22:37.734Z,11.23
2023-04-04T19:25:04.688Z,11.22
2023-04-04T19:27:31.368Z,11.25
2023-04-04T19:29:57.961Z,11.27
2023-04-04T19:32:27.585Z,11.27
2023-04-04T19:34:54.307Z,11.31
2023-04-04T19:37:21.009Z,11.31
2023-04-04T19:39:48.613Z,11.30
2023-04-04T19:42:15.414Z,11.29
2023-04-04T19:44:42.454Z,11.24
2023-04-04T19:47:18.151Z,11.21
2023-04-04T19:49:45.374Z,11.16
2023-04-04T19:52:14.213Z,11.11
2023-04-04T19:54:43.008Z,11.11
2023-04-04T19:57:20.064Z,11.10
2023-04-04T20:00:13.616Z,11.05
2023-04-04T20:02:52.689Z,11.03
2023-04-04T20:05:58.674Z,11.00
2023-04-04T20:08:35.751Z,11.01
2023-04-04T20:11:02.558Z,11.00
2023-04-04T20:13:30.137Z,10.94
2023-04-04T20:16:04.117Z,10.92
2023-04-04T20:18:33.122Z,10.87
2023-04-04T20:21:12.989Z,10.84
2023-04-04T20:23:57.885Z,10.81
2023-04-04T20:26:54.304Z,10.78
2023-04-04T20:29:25.175Z,10.73
2023-04-04T20:32:00.592Z,10.71
2023-04-04T20:34:42.805Z,10.67
2023-04-04T20:37:14.249Z,10.64
2023-04-04T20:39:46.206Z,10.64
2023-04-04T20:42:27.833Z,10.63
2023-04-04T20:44:56.052Z,10.61
2023-04-04T20:47:42.373Z,10.62
2023-04-04T20:50:19.104Z,10.60
2023-04-04T20:52:47.475Z,10.60
2023-04-04T20:55:14.289Z,10.62
2023-04-04T20:57:41.340Z,10.60
2023-04-04T21:00:29.216Z,10.57
2023-04-04T21:02:58.325Z,10.56
2023-04-04T21:05:30.190Z,10.54
2023-04-04T21:07:58.265Z,10.53
2023-04-04T21:10:51.462Z,10.51
2023-04-04T21:13:38.730Z,10.50
2023-04-04T21:16:14.515Z,10.51
2023-04-04T21:18:41.932Z,10.50
2023-04-04T21:21:21.221Z,10.49
2023-04-04T21:23:49.693Z,10.44
2023-04-04T21:26:43.670Z,10.40
2023-04-04T21:29:21.349Z,10.44
2023-04-04T21:31:50.321Z,10.46
2023-04-04T21:34:25.598Z,10.49
2023-04-04T21:37:00.978Z,10.49
2023-04-04T21:39:32.391Z,10.50
2023-04-04T21:42:06.925Z,10.47
2023-04-04T21:44:35.371Z,10.42
2023-04-04T21:47:01.997Z,10.42
2023-04-04T21:49:28.619Z,10.42
2023-04-04T21:51:55.368Z,10.45
2023-04-04T21:54:23.398Z,10.46
2023-04-04T21:56:50.047Z,10.45
2023-04-04T21:59:16.783Z,10.43
2023-04-04T22:01:43.498Z,10.43
2023-04-04T22:04:10.369Z,10.40
2023-04-04T22:06:37.157Z,10.39
2023-04-04T22:09:05.301Z,10.35
2023-04-04T22:11:35.024Z,10.31
2023-04-04T22:14:04.974Z,10.32
2023-04-04T22:16:37.104Z,10.31
2023-04-04T22:19:04.198Z,10.29
2023-04-04T22:21:36.325Z,10.28
2023-04-04T22:24:03.813Z,10.28
2023-04-04T22:26:33.489Z,10.26
2023-04-04T22:29:02.940Z,10.25
2023-04-04T22:31:30.206Z,10.24
2023-04-04T22:33:56.911Z,10.23
2023-04-04T22:36:26.554Z,10.24
2023-04-04T22:38:59.100Z,10.25
2023-04-04T22:41:28.275Z,10.24
2023-04-04T22:43:56.010Z,10.25
2023-04-04T22:46:23.145Z,10.23
2023-04-04T22:48:50.240Z,10.21
2023-04-04T22:51:16.935Z,10.20
2023-04-04T22:53:44.513Z,10.21
2023-04-04T22:56:11.567Z,10.21
2023-04-04T22:58:38.433Z,10.20
2023-04-04T23:01:05.780Z,10.18
2023-04-04T23:03:32.726Z,10.20
2023-04-04T23:05:59.378Z,10.20
2023-04-04T23:08:26.548Z,10.20
2023-04-04T23:10:53.229Z,10.19
2023-04-04T23:13:20.158Z,10.19
2023-04-04T23:15:46.787Z,10.18
2023-04-04T23:18:13.614Z,10.21
2023-04-04T23:20:41.863Z,10.24
2023-04-04T23:23:08.639Z,10.24
2023-04-04T23:25:35.317Z,10.29
2023-04-04T23:28:02.033Z,10.29
2023-04-04T23:30:29.065Z,10.31
2023-04-04T23:32:55.985Z,10.27
2023-04-04T23:35:22.699Z,10.27
2023-04-04T23:37:49.365Z,10.28
2023-04-04T23:40:16.129Z,10.26
2023-04-04T23:42:42.760Z,10.27
2023-04-04T23:45:10.305Z,10.29
2023-04-04T23:47:37.076Z,10.30
2023-04-04T23:50:04.181Z,10.30
2023-04-04T23:52:30.962Z,10.32
2023-04-04T23:54:57.575Z,10.35
2023-04-04T23:57:24.277Z,10.31
2023-04-04T23:59:50.870Z,10.31
